createdAt,value
2023-03-26T00:01:30.209Z,100488.72
2023-03-26T00:03:58.090Z,100490.09
2023-03-26T00:06:30.731Z,100490.22
2023-03-26T00:08:58.516Z,100493.28
2023-03-26T00:11:28.479Z,100484.69
2023-03-26T00:13:57.744Z,100479.38
2023-03-26T00:16:27.969Z,100482.25
2023-03-26T00:18:54.822Z,100481.03
2023-03-26T00:21:28.154Z,100475.53
2023-03-26T00:24:01.057Z,100470.00
2023-03-26T00:26:31.087Z,100468.63
2023-03-26T00:28:58.644Z,100476.78
2023-03-26T00:31:25.330Z,100465.97
2023-03-26T00:33:56.008Z,100462.88
2023-03-26T00:36:27.821Z,100466.47
2023-03-26T00:38:55.056Z,100470.00
2023-03-26T00:41:31.175Z,100457.00
2023-03-26T00:44:00.014Z,100454.75
2023-03-26T00:46:31.194Z,100458.88
2023-03-26T00:49:04.250Z,100456.81
2023-03-26T00:51:31.955Z,100450.41
2023-03-26T00:54:00.056Z,100443.97
2023-03-26T00:56:26.989Z,100443.97
2023-03-26T00:58:53.649Z,100447.69
2023-03-26T01:01:28.054Z,100440.44
2023-03-26T01:04:08.946Z,100436.78
2023-03-26T01:06:42.260Z,100429.38
2023-03-26T01:09:20.890Z,100424.44
2023-03-26T01:11:49.728Z,100416.00
2023-03-26T01:14:20.993Z,100413.84
2023-03-26T01:16:52.493Z,100404.88
2023-03-26T01:19:44.877Z,100401.69
2023-03-26T01:22:18.794Z,100400.44
2023-03-26T01:24:52.248Z,100392.88
2023-03-26T01:27:35.985Z,100397.69
2023-03-26T01:30:13.046Z,100389.50
2023-03-26T01:32:51.981Z,100386.25
2023-03-26T01:35:31.843Z,100382.16
2023-03-26T01:38:22.816Z,100378.44
2023-03-26T01:41:01.899Z,100384.81
2023-03-26T01:43:36.813Z,100388.78
2023-03-26T01:46:08.313Z,100376.63
2023-03-26T01:48:38.256Z,100380.28
2023-03-26T01:51:06.646Z,100366.72
2023-03-26T01:53:37.435Z,100366.69
2023-03-26T01:56:30.587Z,100364.94
2023-03-26T01:59:03.872Z,100365.47
2023-03-26T02:01:54.996Z,100355.75
2023-03-26T02:04:28.708Z,100348.09
2023-03-26T02:07:43.395Z,100338.50
2023-03-26T02:10:21.158Z,100335.16
2023-03-26T02:12:48.298Z,100332.09
2023-03-26T02:15:14.915Z,100330.13
2023-03-26T02:17:41.944Z,100334.84
2023-03-26T02:20:14.570Z,100331.91
2023-03-26T02:22:45.792Z,100320.63
2023-03-26T02:25:19.402Z,100327.13
2023-03-26T02:27:49.716Z,100320.31
2023-03-26T02:30:25.925Z,100325.38
2023-03-26T02:32:59.120Z,100321.28
2023-03-26T02:35:29.834Z,100317.38
2023-03-26T02:37:59.364Z,100311.28
2023-03-26T02:40:26.317Z,100307.09
2023-03-26T02:42:53.089Z,100303.97
2023-03-26T02:45:21.182Z,100300.53
2023-03-26T02:48:07.999Z,100287.59
2023-03-26T02:50:50.247Z,100288.84
2023-03-26T02:53:29.783Z,100283.47
2023-03-26T02:56:14.562Z,100276.81
2023-03-26T02:58:53.281Z,100268.56
2023-03-26T03:01:21.294Z,100260.22
2023-03-26T03:03:52.031Z,100261.56
2023-03-26T03:06:30.919Z,100249.66
2023-03-26T03:08:58.814Z,100252.06
2023-03-26T03:11:39.407Z,100255.25
2023-03-26T03:14:07.181Z,100248.38
2023-03-26T03:16:34.756Z,100248.09
2023-03-26T03:19:10.754Z,100239.72
2023-03-26T03:21:39.533Z,100237.81
2023-03-26T03:24:10.143Z,100238.28
2023-03-26T03:26:45.704Z,100232.38
2023-03-26T03:29:29.952Z,100224.03
2023-03-26T03:32:01.947Z,100223.59
2023-03-26T03:34:44.246Z,100226.53
2023-03-26T03:37:11.822Z,100219.53
2023-03-26T03:39:47.926Z,100212.09
2023-03-26T03:42:19.441Z,100205.66
2023-03-26T03:44:47.962Z,100210.97
2023-03-26T03:47:46.499Z,100211.06
2023-03-26T03:50:15.668Z,100194.91
2023-03-26T03:52:55.914Z,100206.41
2023-03-26T03:55:24.225Z,100191.78
2023-03-26T03:57:53.963Z,100184.53
2023-03-26T04:00:24.354Z,100174.25
2023-03-26T04:03:14.239Z,100173.97
2023-03-26T04:05:43.688Z,100168.22
2023-03-26T04:08:10.898Z,100166.00
2023-03-26T04:10:45.665Z,100162.38
2023-03-26T04:13:13.744Z,100164.88
2023-03-26T04:15:57.886Z,100159.88
2023-03-26T04:18:26.325Z,100145.44
2023-03-26T04:20:55.629Z,100149.84
2023-03-26T04:23:26.701Z,100133.22
2023-03-26T04:26:10.515Z,100133.63
2023-03-26T04:29:02.808Z,100132.53
2023-03-26T04:31:31.185Z,100131.16
2023-03-26T04:34:07.011Z,100129.16
2023-03-26T04:36:42.705Z,100114.19
2023-03-26T04:39:13.449Z,100118.78
2023-03-26T04:41:59.055Z,100112.19
2023-03-26T04:44:34.935Z,100104.41
2023-03-26T04:47:06.386Z,100099.78
2023-03-26T04:49:42.321Z,100103.91
2023-03-26T04:52:12.645Z,100091.72
2023-03-26T04:54:57.797Z,100086.53
2023-03-26T04:57:43.701Z,100076.28
2023-03-26T05:00:20.375Z,100071.25
2023-03-26T05:02:56.277Z,100067.97
2023-03-26T05:05:24.667Z,100066.78
2023-03-26T05:07:51.784Z,100066.13
2023-03-26T05:10:21.372Z,100072.59
2023-03-26T05:12:56.402Z,100074.81
2023-03-26T05:15:29.321Z,100077.88
2023-03-26T05:17:58.677Z,100065.59
2023-03-26T05:20:31.199Z,100058.22
2023-03-26T05:22:58.113Z,100048.94
2023-03-26T05:25:30.459Z,100052.19
2023-03-26T05:27:58.416Z,100052.03
2023-03-26T05:30:31.403Z,100039.81
2023-03-26T05:33:02.720Z,100033.28
2023-03-26T05:35:35.577Z,100024.50
2023-03-26T05:38:02.416Z,100019.00
2023-03-26T05:40:29.232Z,100017.91
2023-03-26T05:43:04.464Z,100004.56
2023-03-26T05:45:41.001Z,100006.91
2023-03-26T05:48:29.862Z,99999.22
2023-03-26T05:50:58.048Z,100000.81
2023-03-26T05:53:27.783Z,100002.13
2023-03-26T05:56:13.157Z,100007.63
2023-03-26T05:58:58.466Z,100008.72
2023-03-26T06:01:51.300Z,99995.59
2023-03-26T06:04:31.858Z,99997.44
2023-03-26T06:07:19.879Z,99998.25
2023-03-26T06:10:07.593Z,99995.50
2023-03-26T06:12:34.568Z,99991.28
2023-03-26T06:15:01.282Z,99989.72
2023-03-26T06:18:00.387Z,99982.00
2023-03-26T06:20:47.103Z,99982.28
2023-03-26T06:23:23.906Z,99969.50
2023-03-26T06:26:27.462Z,99967.72
2023-03-26T06:29:14.731Z,99966.22
2023-03-26T06:31:59.576Z,99963.91
2023-03-26T06:34:44.963Z,99964.47
2023-03-26T06:37:11.821Z,99970.53
2023-03-26T06:39:38.606Z,99968.72
2023-03-26T06:42:12.600Z,99965.31
2023-03-26T06:45:03.566Z,99971.25
2023-03-26T06:47:48.809Z,99964.03
2023-03-26T06:50:15.840Z,99967.31
2023-03-26T06:53:11.297Z,99967.06
2023-03-26T06:55:41.786Z,99964.94
2023-03-26T06:58:20.434Z,99968.25
2023-03-26T07:01:06.669Z,99970.09
2023-03-26T07:03:52.296Z,99966.66
2023-03-26T07:06:37.783Z,99973.34
2023-03-26T07:09:23.410Z,99973.66
2023-03-26T07:12:09.382Z,99969.44
2023-03-26T07:14:57.905Z,99970.38
2023-03-26T07:17:52.833Z,99961.94
2023-03-26T07:20:26.851Z,99960.16
2023-03-26T07:22:54.042Z,99962.47
2023-03-26T07:25:50.371Z,99960.81
2023-03-26T07:29:04.770Z,99954.81
2023-03-26T07:32:20.176Z,99953.59
2023-03-26T07:35:14.273Z,99959.81
2023-03-26T07:38:12.660Z,99955.31
2023-03-26T07:41:17.710Z,99952.91
2023-03-26T07:44:09.774Z,99947.44
2023-03-26T07:46:55.702Z,99950.75
2023-03-26T07:49:47.539Z,99951.38
2023-03-26T07:52:40.853Z,99943.34
2023-03-26T07:55:17.863Z,99938.66
2023-03-26T07:58:28.495Z,99937.09
2023-03-26T08:01:34.531Z,99937.88
2023-03-26T08:04:23.904Z,99939.28
2023-03-26T08:07:28.362Z,99933.84
2023-03-26T08:10:33.306Z,99934.75
2023-03-26T08:13:05.214Z,99947.66
2023-03-26T08:15:43.998Z,99936.41
2023-03-26T08:18:44.647Z,99940.97
2023-03-26T08:21:17.456Z,99934.16
2023-03-26T08:24:13.428Z,99928.38
2023-03-26T08:26:57.524Z,99937.13
2023-03-26T08:29:45.189Z,99933.38
2023-03-26T08:32:17.956Z,99929.50
2023-03-26T08:34:45.159Z,99931.16
2023-03-26T08:37:12.500Z,99935.75
2023-03-26T08:39:41.787Z,99934.84
2023-03-26T08:42:46.228Z,99934.41
2023-03-26T08:45:18.787Z,99935.94
2023-03-26T08:48:29.953Z,99931.94
2023-03-26T08:51:18.485Z,99931.59
2023-03-26T08:53:51.178Z,99930.31
2023-03-26T08:56:37.496Z,99929.69
2023-03-26T08:59:25.781Z,99929.44
2023-03-26T09:02:34.500Z,99927.88
2023-03-26T09:05:36.220Z,99922.25
2023-03-26T09:08:35.628Z,99918.19
2023-03-26T09:11:16.625Z,99926.41
2023-03-26T09:14:10.579Z,99925.66
2023-03-26T09:16:55.645Z,99928.22
2023-03-26T09:19:25.281Z,99919.44
2023-03-26T09:22:13.721Z,99921.84
2023-03-26T09:24:46.583Z,99925.31
2023-03-26T09:27:38.164Z,99928.47
2023-03-26T09:30:43.259Z,99915.63
2023-03-26T09:33:32.203Z,99919.38
2023-03-26T09:36:49.979Z,99925.28
2023-03-26T09:39:33.376Z,99922.50
2023-03-26T09:42:04.972Z,99923.66
2023-03-26T09:44:55.549Z,99923.59
2023-03-26T09:47:53.583Z,99930.84
2023-03-26T09:50:41.297Z,99920.34
2023-03-26T09:53:16.610Z,99926.09
2023-03-26T09:55:43.424Z,99923.22
2023-03-26T09:58:38.814Z,99919.88
2023-03-26T10:01:25.191Z,99927.97
2023-03-26T10:04:07.252Z,99932.59
2023-03-26T10:06:53.010Z,99928.81
2023-03-26T10:09:34.314Z,99932.31
2023-03-26T10:12:10.777Z,99936.38
2023-03-26T10:14:54.852Z,99932.72
2023-03-26T10:17:29.017Z,99928.56
2023-03-26T10:20:30.974Z,99935.31
2023-03-26T10:23:30.394Z,99929.50
2023-03-26T10:26:11.382Z,99928.69
2023-03-26T10:28:59.504Z,99929.94
2023-03-26T10:32:14.304Z,99930.78
2023-03-26T10:34:56.454Z,99932.72
2023-03-26T10:37:38.494Z,99936.00
2023-03-26T10:40:23.845Z,99934.81
2023-03-26T10:43:00.281Z,99944.97
2023-03-26T10:45:44.125Z,99937.31
2023-03-26T10:48:42.007Z,99941.03
2023-03-26T10:51:27.493Z,99943.16
2023-03-26T10:53:58.445Z,99946.22
2023-03-26T10:56:54.355Z,99945.03
2023-03-26T10:59:21.601Z,99956.22
2023-03-26T11:02:21.015Z,99955.22
2023-03-26T11:05:19.453Z,99966.88
2023-03-26T11:08:19.400Z,99958.53
2023-03-26T11:11:21.216Z,99974.16
2023-03-26T11:14:04.170Z,99960.03
2023-03-26T11:16:38.752Z,99963.59
2023-03-26T11:19:33.459Z,99973.44
2023-03-26T11:22:11.307Z,99973.72
2023-03-26T11:24:47.231Z,99982.69
2023-03-26T11:27:33.859Z,99973.91
2023-03-26T11:30:23.589Z,99981.50
2023-03-26T11:32:59.190Z,99979.50
2023-03-26T11:35:39.561Z,99980.28
2023-03-26T11:38:32.894Z,99976.84
2023-03-26T11:41:01.720Z,99984.16
2023-03-26T11:43:52.407Z,99979.66
2023-03-26T11:46:22.934Z,99982.19
2023-03-26T11:49:06.680Z,99988.13
2023-03-26T11:51:36.207Z,99985.88
2023-03-26T11:54:08.238Z,99985.34
2023-03-26T11:57:04.711Z,99994.03
2023-03-26T11:59:57.263Z,99990.06
2023-03-26T12:02:38.742Z,100000.28
2023-03-26T12:05:27.337Z,100000.47
2023-03-26T12:07:59.663Z,99998.31
2023-03-26T12:10:39.290Z,100002.81
2023-03-26T12:13:20.647Z,99999.25
2023-03-26T12:15:47.736Z,100005.09
2023-03-26T12:18:26.092Z,100006.75
2023-03-26T12:21:23.479Z,100009.63
2023-03-26T12:23:58.198Z,100011.41
2023-03-26T12:26:39.409Z,100007.56
2023-03-26T12:29:18.105Z,100008.06
2023-03-26T12:32:17.023Z,100024.31
2023-03-26T12:34:44.039Z,100017.44
2023-03-26T12:37:37.429Z,100021.69
2023-03-26T12:40:32.644Z,100020.91
2023-03-26T12:44:51.385Z,100030.34
2023-03-26T12:47:54.422Z,100027.81
2023-03-26T12:48:41.541Z,100031.94
2023-03-26T12:51:37.820Z,100021.22
2023-03-26T12:54:04.549Z,100027.09
2023-03-26T12:57:12.312Z,100036.94
2023-03-26T13:00:09.125Z,100034.44
2023-03-26T13:03:03.980Z,100037.44
2023-03-26T13:05:50.774Z,100046.56
2023-03-26T13:08:46.745Z,100044.91
2023-03-26T13:11:20.160Z,100062.38
2023-03-26T13:14:16.273Z,100050.53
2023-03-26T13:16:56.756Z,100050.72
2023-03-26T13:19:47.842Z,100052.47
2023-03-26T13:22:22.600Z,100056.28
2023-03-26T13:24:55.869Z,100051.59
2023-03-26T13:27:31.137Z,100060.41
2023-03-26T13:30:19.619Z,100074.34
2023-03-26T13:32:58.621Z,100063.06
2023-03-26T13:35:37.266Z,100071.19
2023-03-26T13:38:13.154Z,100077.41
2023-03-26T13:40:59.251Z,100077.72
2023-03-26T13:43:31.714Z,100072.31
2023-03-26T13:46:21.856Z,100090.09
2023-03-26T13:48:59.921Z,100087.09
2023-03-26T13:51:52.980Z,100093.72
2023-03-26T13:54:32.341Z,100100.13
2023-03-26T13:57:25.397Z,100091.66
2023-03-26T14:00:00.149Z,100102.53
2023-03-26T14:02:39.678Z,100106.31
2023-03-26T14:05:21.761Z,100109.06
2023-03-26T14:07:54.849Z,100115.25
2023-03-26T14:10:26.543Z,100127.03
2023-03-26T14:13:24.302Z,100139.13
2023-03-26T14:16:37.481Z,100135.38
2023-03-26T14:19:58.841Z,100134.81
2023-03-26T14:22:37.989Z,100159.41
2023-03-26T14:25:42.064Z,100143.63
2023-03-26T14:28:47.068Z,100157.53
2023-03-26T14:31:38.296Z,100159.44
2023-03-26T14:34:23.518Z,100162.72
2023-03-26T14:37:06.131Z,100162.53
2023-03-26T14:40:14.833Z,100173.03
2023-03-26T14:42:46.985Z,100180.56
2023-03-26T14:45:50.062Z,100178.94
2023-03-26T14:48:42.150Z,100184.84
2023-03-26T14:51:16.483Z,100191.94
2023-03-26T14:53:54.270Z,100202.22
2023-03-26T14:56:30.502Z,100191.84
2023-03-26T14:59:18.516Z,100195.59
2023-03-26T15:02:09.585Z,100207.38
2023-03-26T15:04:54.157Z,100207.50
2023-03-26T15:07:50.163Z,100206.00
2023-03-26T15:10:54.200Z,100210.09
2023-03-26T15:13:48.890Z,100217.34
2023-03-26T15:16:34.358Z,100220.91
2023-03-26T15:19:10.517Z,100233.22
2023-03-26T15:22:18.937Z,100242.78
2023-03-26T15:25:01.048Z,100236.81
2023-03-26T15:28:08.077Z,100251.28
2023-03-26T15:31:07.622Z,100258.72
2023-03-26T15:33:43.979Z,100255.47
2023-03-26T15:36:45.509Z,100263.06
2023-03-26T15:39:19.261Z,100269.47
2023-03-26T15:42:23.677Z,100274.41
2023-03-26T15:44:54.051Z,100279.59
2023-03-26T15:47:43.392Z,100283.69
2023-03-26T15:50:27.048Z,100295.63
2023-03-26T15:53:25.842Z,100293.09
2023-03-26T15:55:57.773Z,100305.03
2023-03-26T15:58:31.752Z,100297.41
2023-03-26T16:01:23.303Z,100310.38
2023-03-26T16:03:56.366Z,100311.16
2023-03-26T16:06:41.427Z,100324.63
2023-03-26T16:09:24.281Z,100325.72
2023-03-26T16:12:25.916Z,100328.53
2023-03-26T16:15:13.608Z,100334.78
2023-03-26T16:18:16.653Z,100345.22
2023-03-26T16:21:01.682Z,100352.97
2023-03-26T16:23:50.299Z,100351.34
2023-03-26T16:26:39.366Z,100339.44
2023-03-26T16:29:25.034Z,100373.03
2023-03-26T16:32:26.135Z,100386.44
2023-03-26T16:35:23.782Z,100383.13
2023-03-26T16:38:14.700Z,100395.50
2023-03-26T16:41:15.747Z,100402.63
2023-03-26T16:43:58.750Z,100419.38
2023-03-26T16:46:39.560Z,100420.53
2023-03-26T16:49:47.433Z,100426.19
2023-03-26T16:52:40.051Z,100432.00
2023-03-26T16:55:35.188Z,100435.00
2023-03-26T16:58:11.054Z,100442.63
2023-03-26T17:00:52.481Z,100460.13
2023-03-26T17:03:47.647Z,100463.03
2023-03-26T17:06:28.377Z,100464.75
2023-03-26T17:08:59.617Z,100465.75
2023-03-26T17:11:58.293Z,100473.72
2023-03-26T17:14:48.969Z,100483.22
2023-03-26T17:17:46.591Z,100481.75
2023-03-26T17:20:19.604Z,100502.69
2023-03-26T17:22:57.685Z,100516.72
2023-03-26T17:25:44.595Z,100520.06
2023-03-26T17:28:44.016Z,100534.59
2023-03-26T17:31:23.784Z,100531.91
2023-03-26T17:33:50.882Z,100529.16
2023-03-26T17:36:31.345Z,100543.97
2023-03-26T17:39:18.350Z,100548.91
2023-03-26T17:41:55.697Z,100566.19
2023-03-26T17:44:49.957Z,100554.47
2023-03-26T17:47:26.060Z,100567.59
2023-03-26T17:50:23.041Z,100571.47
2023-03-26T17:52:58.346Z,100584.19
2023-03-26T17:55:32.045Z,100597.06
2023-03-26T17:58:05.269Z,100582.13
2023-03-26T18:00:41.776Z,100594.03
2023-03-26T18:03:08.768Z,100603.94
2023-03-26T18:05:39.406Z,100615.22
2023-03-26T18:08:45.295Z,100616.84
2023-03-26T18:11:31.146Z,100629.53
2023-03-26T18:14:20.030Z,100630.97
2023-03-26T18:16:53.202Z,100647.91
2023-03-26T18:19:23.079Z,100654.91
2023-03-26T18:21:57.072Z,100647.25
2023-03-26T18:24:39.474Z,100655.72
2023-03-26T18:27:12.507Z,100663.88
2023-03-26T18:29:46.227Z,100668.97
2023-03-26T18:32:15.304Z,100668.00
2023-03-26T18:34:57.683Z,100682.63
2023-03-26T18:37:29.264Z,100674.09
2023-03-26T18:39:57.281Z,100701.09
2023-03-26T18:42:25.367Z,100694.47
2023-03-26T18:44:53.797Z,100704.78
2023-03-26T18:47:28.126Z,100716.56
2023-03-26T18:49:57.455Z,100723.44
2023-03-26T18:52:27.168Z,100728.31
2023-03-26T18:54:54.389Z,100737.56
2023-03-26T18:57:27.701Z,100737.31
2023-03-26T19:00:07.512Z,100741.09
2023-03-26T19:02:35.085Z,100743.81
2023-03-26T19:05:03.556Z,100755.53
2023-03-26T19:07:30.581Z,100756.63
2023-03-26T19:10:00.280Z,100759.81
2023-03-26T19:12:37.431Z,100763.66
2023-03-26T19:15:09.547Z,100772.09
2023-03-26T19:18:07.747Z,100770.91
2023-03-26T19:20:58.660Z,100773.69
2023-03-26T19:23:31.821Z,100786.03
2023-03-26T19:26:01.795Z,100787.53
2023-03-26T19:28:32.141Z,100798.50
2023-03-26T19:31:08.182Z,100804.66
2023-03-26T19:33:43.001Z,100814.25
2023-03-26T19:36:33.754Z,100815.63
2023-03-26T19:39:02.315Z,100821.34
2023-03-26T19:41:35.900Z,100820.56
2023-03-26T19:44:20.733Z,100826.53
2023-03-26T19:46:53.382Z,100837.34
2023-03-26T19:49:53.059Z,100840.03
2023-03-26T19:52:34.016Z,100845.00
2023-03-26T19:55:01.532Z,100857.41
2023-03-26T19:57:30.354Z,100854.81
2023-03-26T19:59:57.933Z,100862.69
2023-03-26T20:02:26.035Z,100854.75
2023-03-26T20:04:52.854Z,100863.69
2023-03-26T20:07:35.787Z,100870.31
2023-03-26T20:10:05.804Z,100881.19
2023-03-26T20:12:35.353Z,100887.38
2023-03-26T20:15:02.198Z,100891.47
2023-03-26T20:17:30.955Z,100898.97
2023-03-26T20:19:57.767Z,100899.38
2023-03-26T20:22:24.582Z,100894.91
2023-03-26T20:24:51.670Z,100908.16
2023-03-26T20:27:19.303Z,100909.63
2023-03-26T20:29:46.542Z,100921.53
2023-03-26T20:32:26.390Z,100918.53
2023-03-26T20:34:54.166Z,100914.75
2023-03-26T20:37:20.856Z,100915.75
2023-03-26T20:39:48.241Z,100932.78
2023-03-26T20:42:16.420Z,100932.50
2023-03-26T20:44:44.371Z,100936.03
2023-03-26T20:47:11.571Z,100933.56
2023-03-26T20:49:39.164Z,100952.13
2023-03-26T20:52:07.252Z,100948.69
2023-03-26T20:54:35.709Z,100960.34
2023-03-26T20:57:02.943Z,100977.78
2023-03-26T20:59:31.173Z,100979.50
2023-03-26T21:01:59.498Z,100981.34
2023-03-26T21:04:27.354Z,100991.78
2023-03-26T21:07:11.181Z,100999.75
2023-03-26T21:09:44.946Z,101007.38
2023-03-26T21:12:43.340Z,101015.13
2023-03-26T21:15:22.376Z,101015.66
2023-03-26T21:17:52.413Z,101022.34
2023-03-26T21:20:21.416Z,101013.13
2023-03-26T21:23:19.560Z,101026.56
2023-03-26T21:26:42.976Z,101032.66
2023-03-26T21:29:10.398Z,101040.78
2023-03-26T21:31:40.532Z,101041.06
2023-03-26T21:34:08.414Z,101052.97
2023-03-26T21:36:36.810Z,101056.69
2023-03-26T21:39:06.196Z,101059.09
2023-03-26T21:41:44.878Z,101055.25
2023-03-26T21:44:11.823Z,101065.66
2023-03-26T21:46:42.140Z,101078.13
2023-03-26T21:49:10.333Z,101072.50
2023-03-26T21:51:37.988Z,101079.63
2023-03-26T21:54:26.659Z,101082.16
2023-03-26T21:57:05.956Z,101101.53
2023-03-26T21:59:51.875Z,101095.31
2023-03-26T22:02:24.696Z,101098.63
2023-03-26T22:05:04.090Z,101093.06
2023-03-26T22:07:54.872Z,101094.53
2023-03-26T22:10:21.861Z,101103.06
2023-03-26T22:12:49.910Z,101115.25
2023-03-26T22:15:18.348Z,101113.38
2023-03-26T22:17:46.647Z,101119.72
2023-03-26T22:20:14.888Z,101120.34
2023-03-26T22:22:48.654Z,101123.78
2023-03-26T22:25:16.819Z,101129.19
2023-03-26T22:27:45.205Z,101124.41
2023-03-26T22:30:12.959Z,101141.50
2023-03-26T22:32:40.143Z,101143.78
2023-03-26T22:35:07.521Z,101142.78
2023-03-26T22:37:36.209Z,101150.47
2023-03-26T22:40:08.336Z,101157.06
2023-03-26T22:42:36.335Z,101160.09
2023-03-26T22:45:04.540Z,101164.34
2023-03-26T22:47:33.831Z,101169.50
2023-03-26T22:50:02.005Z,101177.72
2023-03-26T22:52:30.513Z,101176.56
2023-03-26T22:54:57.312Z,101184.59
2023-03-26T22:57:24.360Z,101180.56
2023-03-26T22:59:52.025Z,101186.59
2023-03-26T23:02:20.072Z,101200.44
2023-03-26T23:04:47.807Z,101208.38
2023-03-26T23:07:15.240Z,101212.69
2023-03-26T23:09:42.088Z,101222.44
2023-03-26T23:12:08.747Z,101233.66
2023-03-26T23:14:36.255Z,101230.19
2023-03-26T23:17:03.812Z,101238.16
2023-03-26T23:19:30.549Z,101248.38
2023-03-26T23:21:57.545Z,101243.84
2023-03-26T23:24:26.457Z,101244.88
2023-03-26T23:26:53.354Z,101254.75
2023-03-26T23:29:20.250Z,101266.03
2023-03-26T23:31:47.536Z,101266.00
2023-03-26T23:34:15.389Z,101266.66
2023-03-26T23:36:42.815Z,101268.94
2023-03-26T23:39:10.906Z,101273.38
2023-03-26T23:41:38.031Z,101275.44
2023-03-26T23:44:05.424Z,101269.53
2023-03-26T23:46:35.090Z,101275.31
2023-03-26T23:49:04.747Z,101272.13
2023-03-26T23:51:32.601Z,101280.69
2023-03-26T23:54:00.938Z,101286.50
2023-03-26T23:56:29.849Z,101294.44
2023-03-26T23:58:56.606Z,101299.91
